Time;durP1;ratioP1;P1;durP2;ratioP2;P2;SDS_P1;SDS_P2;PMS_P1;PMS_P2;Temp;Humidity;BMP_temperature;BMP_pressure;BME280_temperature;BME280_humidity;BME280_pressure;Samples;Min_cycle;Max_cycle;Signal;HPM_P1;HPM_P2
2022/12/27 00:01:19;;;;;;;1.30;0.98;;;;;;;19.51;52.92;96939.72;10338524;28;20055;-53
2022/12/27 00:06:40;;;;;;;1.13;0.80;;;;;;;19.50;53.06;96948.97;10338817;28;20104;-53
2022/12/27 00:11:59;;;;;;;1.38;0.70;;;;;;;19.49;53.10;96949.28;10337977;28;20058;-53
2022/12/27 00:17:19;;;;;;;0.98;0.80;;;;;;;19.47;52.99;96951.50;10348661;28;20054;-53
2022/12/27 00:22:39;;;;;;;0.80;0.80;;;;;;;19.46;53.02;96958.78;10330790;28;20054;-53
2022/12/27 00:27:59;;;;;;;1.13;0.73;;;;;;;19.45;52.85;96957.22;10334994;28;20058;-53
2022/12/27 00:33:18;;;;;;;1.83;0.70;;;;;;;19.43;52.93;96955.97;10335513;28;20058;-53
2022/12/27 00:38:37;;;;;;;2.33;0.95;;;;;;;19.42;52.92;96963.25;10335968;28;20065;-53
2022/12/27 00:43:57;;;;;;;1.45;0.70;;;;;;;19.41;52.88;96964.38;10336500;28;20054;-53
2022/12/27 00:49:17;;;;;;;1.35;0.82;;;;;;;19.40;52.87;96978.97;10343376;28;20097;-53
2022/12/27 00:54:36;;;;;;;0.95;0.73;;;;;;;19.38;52.94;96978.50;10340234;28;20097;-53
2022/12/27 00:59:55;;;;;;;1.55;0.80;;;;;;;19.37;52.88;96982.34;10333487;28;20407;-52
2022/12/27 01:05:15;;;;;;;1.05;0.70;;;;;;;19.36;52.84;96988.84;10336816;28;20054;-53
2022/12/27 01:10:35;;;;;;;0.88;0.88;;;;;;;19.35;52.98;96992.66;10308282;28;20062;-53
2022/12/27 01:15:54;;;;;;;1.13;0.82;;;;;;;19.33;52.79;96990.28;10335707;28;20054;-53
2022/12/27 01:21:17;;;;;;;2.38;0.90;;;;;;;19.33;52.83;97017.28;10332154;28;20522;-54
2022/12/27 01:26:37;;;;;;;1.08;0.70;;;;;;;19.31;52.81;97021.44;10332375;28;20077;-54
2022/12/27 01:31:58;;;;;;;1.50;0.68;;;;;;;19.30;52.96;97034.13;10347862;28;20050;-53
2022/12/27 01:37:18;;;;;;;1.52;0.73;;;;;;;19.29;52.89;97046.06;10329249;28;20062;-53
2022/12/27 01:42:53;;;;;;;0.90;0.60;;;;;;;19.28;52.94;97047.16;10319289;28;20058;-54
2022/12/27 01:48:21;;;;;;;2.53;0.80;;;;;;;19.27;52.87;97061.00;10334214;28;20062;-52
2022/12/27 01:53:44;;;;;;;0.93;0.63;;;;;;;19.26;52.83;97073.69;10315315;28;20054;-53
2022/12/27 01:59:06;;;;;;;0.60;0.60;;;;;;;19.24;52.82;97116.41;10332970;28;20061;-52
2022/12/27 02:04:28;;;;;;;0.57;0.55;;;;;;;19.23;52.72;97146.44;10298815;28;20510;-53
2022/12/27 02:09:52;;;;;;;0.82;0.70;;;;;;;19.22;52.74;97152.97;10328463;28;20055;-53
2022/12/27 02:15:12;;;;;;;1.00;0.85;;;;;;;19.21;52.80;97178.38;10318237;28;20063;-53
2022/12/27 02:21:01;;;;;;;0.68;0.60;;;;;;;19.21;52.78;97191.88;10333129;28;20113;-54
2022/12/27 02:26:36;;;;;;;0.65;0.50;;;;;;;19.19;52.82;97194.09;10306831;28;20442;-53
2022/12/27 02:32:08;;;;;;;0.77;0.52;;;;;;;19.17;52.79;97206.03;10318372;28;20050;-53
2022/12/27 02:37:30;;;;;;;2.13;0.52;;;;;;;19.15;52.65;97213.63;10308152;28;20062;-53
2022/12/27 02:54:39;;;;;;;0.70;0.60;;;;;;;19.10;52.69;97248.88;10345576;28;20046;-54
2022/12/27 03:06:39;;;;;;;0.52;0.40;;;;;;;19.09;52.66;97274.28;10325762;28;20073;-53
2022/12/27 03:17:51;;;;;;;1.33;0.50;;;;;;;19.06;52.43;97277.59;10330553;28;20065;-53
2022/12/27 03:34:38;;;;;;;0.68;0.52;;;;;;;19.04;52.58;97292.53;10332790;28;20058;-53
2022/12/27 03:40:14;;;;;;;0.77;0.55;;;;;;;19.02;52.37;97336.03;10331223;28;20062;-53
2022/12/27 03:52:00;;;;;;;0.85;0.60;;;;;;;18.98;52.58;97378.25;10331611;28;20042;-53
2022/12/27 03:57:23;;;;;;;0.95;0.50;;;;;;;18.98;52.54;97389.06;10316451;28;20050;-53
2022/12/27 04:02:42;;;;;;;1.50;0.70;;;;;;;18.96;52.42;97402.06;10330442;28;20058;-54
2022/12/27 04:36:13;;;;;;;0.40;0.40;;;;;;;18.90;52.29;97435.69;10325854;28;20065;-54
2022/12/27 04:58:33;;;;;;;0.65;0.50;;;;;;;18.85;52.31;97462.78;10319068;28;20511;-53
2022/12/27 05:03:52;;;;;;;0.43;0.40;;;;;;;18.82;52.33;97466.06;10310807;28;20054;-52
2022/12/27 05:14:50;;;;;;;0.68;0.68;;;;;;;18.80;52.20;97489.88;10325253;28;20085;-53
2022/12/27 05:20:10;;;;;;;1.40;0.50;;;;;;;18.79;52.21;97499.84;10335794;28;20085;-53
2022/12/27 05:25:38;;;;;;;0.43;0.43;;;;;;;18.78;52.25;97507.16;10334512;28;20105;-53
2022/12/27 05:31:01;;;;;;;0.43;0.43;;;;;;;18.77;52.18;97519.03;10335409;28;20058;-52
2022/12/27 05:36:21;;;;;;;0.40;0.40;;;;;;;18.78;52.14;97530.66;10335031;28;20066;-52
2022/12/27 05:41:41;;;;;;;0.28;0.28;;;;;;;18.76;52.14;97544.44;10335073;28;20108;-53
2022/12/27 05:47:00;;;;;;;0.40;0.38;;;;;;;18.78;52.12;97542.25;10334659;28;20062;-53
2022/12/27 05:52:20;;;;;;;0.40;0.40;;;;;;;18.77;52.11;97543.34;10347184;28;20058;-51
2022/12/27 05:57:40;;;;;;;0.75;0.45;;;;;;;18.80;52.06;97554.66;10334208;28;20062;-52
2022/12/27 06:03:01;;;;;;;0.28;0.28;;;;;;;18.80;51.98;97557.34;10324021;28;20054;-53
2022/12/27 06:08:21;;;;;;;0.38;0.30;;;;;;;18.81;51.98;97567.06;10324758;28;20058;-53
2022/12/27 06:13:41;;;;;;;0.40;0.40;;;;;;;18.81;51.97;97570.56;10330336;28;20050;-54
2022/12/27 06:19:01;;;;;;;0.40;0.40;;;;;;;18.83;52.17;97571.06;10328187;28;20065;-53
2022/12/27 06:24:21;;;;;;;0.30;0.30;;;;;;;18.84;51.97;97578.06;10311216;28;20067;-52
2022/12/27 06:29:40;;;;;;;0.40;0.40;;;;;;;18.87;52.08;97592.84;10329820;28;20058;-53
2022/12/27 06:35:00;;;;;;;0.45;0.45;;;;;;;18.88;52.09;97611.47;10331965;28;20054;-51
2022/12/27 06:40:20;;;;;;;0.40;0.40;;;;;;;18.89;52.11;97614.97;10329165;28;20120;-53
2022/12/27 06:45:40;;;;;;;0.47;0.47;;;;;;;18.91;52.07;97620.84;10345500;28;20051;-53
2022/12/27 06:51:03;;;;;;;1.25;0.30;;;;;;;18.92;52.00;97625.97;10311532;28;20077;-53
2022/12/27 06:56:23;;;;;;;1.45;0.30;;;;;;;18.95;52.11;97638.06;10327590;28;20046;-52
2022/12/27 07:01:42;;;;;;;0.50;0.40;;;;;;;18.96;52.19;97640.47;10320141;28;20050;-52
2022/12/27 07:07:01;;;;;;;1.63;0.45;;;;;;;18.98;52.30;97650.97;10304964;28;20109;-53
2022/12/27 07:12:21;;;;;;;1.83;0.70;;;;;;;18.76;40.98;97665.91;10331097;28;20510;-53
2022/12/27 07:17:41;;;;;;;1.88;0.73;;;;;;;17.92;34.31;97682.91;10332183;28;20062;-53
2022/12/27 07:23:00;;;;;;;1.63;0.80;;;;;;;17.29;32.41;97681.28;10331240;28;20054;-53
2022/12/27 07:28:19;;;;;;;1.25;0.80;;;;;;;17.16;36.64;97672.00;10320094;28;20521;-54
2022/12/27 07:33:39;;;;;;;1.05;0.45;;;;;;;17.68;39.88;97674.03;10331414;28;20055;-53
2022/12/27 07:38:59;;;;;;;0.73;0.52;;;;;;;18.06;40.26;97690.28;10331361;28;20065;-54
2022/12/27 07:44:18;;;;;;;1.27;0.52;;;;;;;18.29;41.63;97675.09;10313366;28;20055;-53
2022/12/27 07:49:37;;;;;;;1.63;0.60;;;;;;;18.42;42.13;97682.41;10331404;28;20569;-53
2022/12/27 07:54:57;;;;;;;1.17;0.60;;;;;;;18.52;42.69;97684.13;10338777;28;20496;-53
2022/12/27 08:00:16;;;;;;;1.45;0.70;;;;;;;18.57;42.57;97692.94;10345587;28;20058;-53
2022/12/27 08:05:36;;;;;;;1.23;0.70;;;;;;;18.63;43.62;97696.38;10337747;28;20062;-54
2022/12/27 08:10:55;;;;;;;0.50;0.47;;;;;;;18.68;43.99;97693.59;10329683;28;20414;-53
2022/12/27 08:16:18;;;;;;;1.35;0.50;;;;;;;18.72;44.37;97710.78;10337284;28;20070;-54
2022/12/27 08:21:37;;;;;;;1.35;0.50;;;;;;;18.76;44.70;97701.00;10350877;28;20065;-54
2022/12/27 08:26:57;;;;;;;1.17;0.50;;;;;;;18.81;44.93;97702.03;10336912;28;20062;-54
2022/12/27 08:32:17;;;;;;;2.58;0.70;;;;;;;18.86;45.41;97710.06;10342306;28;20050;-53
2022/12/27 08:37:37;;;;;;;0.57;0.50;;;;;;;18.89;45.56;97709.44;10350311;28;20105;-54
2022/12/27 08:42:58;;;;;;;1.10;0.40;;;;;;;18.91;46.05;97708.06;10349510;28;20074;-53
2022/12/27 08:48:18;;;;;;;1.55;0.57;;;;;;;18.94;46.20;97704.75;10328570;28;20062;-53
2022/12/27 08:53:37;;;;;;;0.88;0.50;;;;;;;18.95;46.42;97703.69;10336626;28;20073;-53
2022/12/27 08:58:57;;;;;;;0.70;0.50;;;;;;;19.00;46.62;97704.69;10306474;28;20070;-53
2022/12/27 09:04:17;;;;;;;1.50;0.57;;;;;;;19.01;46.87;97720.56;10307316;28;20079;-54
2022/12/27 09:09:36;;;;;;;1.25;0.57;;;;;;;19.05;47.19;97729.69;10336299;28;20058;-52
2022/12/27 09:14:57;;;;;;;2.35;0.45;;;;;;;19.08;47.26;97729.09;10313613;28;20054;-53
2022/12/27 09:20:17;;;;;;;1.10;0.70;;;;;;;19.11;47.49;97743.88;10301831;28;20062;-53
2022/12/27 09:25:37;;;;;;;0.45;0.45;;;;;;;19.14;47.56;97738.69;10296099;28;20051;-55
2022/12/27 09:30:56;;;;;;;0.55;0.50;;;;;;;19.15;47.47;97745.72;10295031;28;20412;-53
2022/12/27 09:36:18;;;;;;;3.35;0.70;;;;;;;19.19;47.80;97745.91;10326117;28;20050;-54
2022/12/27 09:41:51;;;;;;;0.40;0.40;;;;;;;19.22;47.73;97744.50;10310138;28;20050;-55
2022/12/27 09:47:23;;;;;;;0.60;0.55;;;;;;;19.24;47.92;97736.91;10277775;28;20055;-54
2022/12/27 09:53:02;;;;;;;1.63;0.60;;;;;;;19.26;47.96;97732.81;10273482;28;20043;-54
2022/12/27 09:58:48;;;;;;;0.80;0.40;;;;;;;19.29;48.24;97717.91;10260685;28;20058;-53
2022/12/27 10:04:12;;;;;;;2.35;0.75;;;;;;;19.33;48.16;97718.91;10302828;28;20149;-54
2022/12/27 10:09:44;;;;;;;1.70;0.50;;;;;;;19.36;48.44;97702.09;10266546;28;20054;-53
2022/12/27 10:15:10;;;;;;;0.60;0.50;;;;;;;19.39;48.40;97711.50;10320642;28;20054;-54
2022/12/27 10:20:52;;;;;;;0.95;0.80;;;;;;;19.42;48.64;97700.88;10328607;28;20058;-53
2022/12/27 10:26:14;;;;;;;0.50;0.40;;;;;;;19.44;48.66;97692.47;10324351;28;20050;-54
2022/12/27 10:31:36;;;;;;;1.10;0.70;;;;;;;19.47;49.38;97700.00;10318440;28;20047;-53
2022/12/27 10:36:55;;;;;;;3.30;0.98;;;;;;;19.49;49.72;97709.38;10318269;28;20467;-54
2022/12/27 10:42:34;;;;;;;9.27;7.45;;;;;;;19.53;49.69;97718.50;10331044;28;20129;-54
2022/12/27 10:47:55;;;;;;;30.02;26.02;;;;;;;19.54;49.89;97724.69;10295547;28;20062;-50
2022/12/27 10:53:44;;;;;;;22.95;15.63;;;;;;;19.56;50.28;97734.13;10332332;28;20153;-53
2022/12/27 10:59:06;;;;;;;65.18;21.80;;;;;;;19.60;50.35;97736.19;10303403;28;20062;-52
2022/12/27 11:04:28;;;;;;;61.97;15.73;;;;;;;19.53;45.29;97733.91;10316030;28;20055;-53
2022/12/27 11:09:47;;;;;;;45.47;15.35;;;;;;;19.52;46.99;97735.81;10305788;28;20055;-53
2022/12/27 11:15:10;;;;;;;40.63;13.63;;;;;;;19.57;47.49;97743.03;10322365;28;20402;-52
2022/12/27 11:20:40;;;;;;;40.25;17.00;;;;;;;19.57;47.49;97743.03;10342811;28;20097;-55
2022/12/27 11:26:02;;;;;;;87.18;56.80;;;;;;;19.67;49.79;97752.81;10324538;28;20054;-59
2022/12/27 11:31:36;;;;;;;105.95;65.70;;;;;;;19.67;49.79;97752.81;10311936;28;20051;-56
2022/12/27 11:37:13;;;;;;;102.45;68.80;;;;;;;-146.19;100.00;65364.44;10301326;28;20051;-61
2022/12/27 11:42:42;;;;;;;47.42;29.58;;;;;;;-146.19;100.00;65364.44;10320261;28;20050;-53
2022/12/27 11:48:29;;;;;;;49.40;32.97;;;;;;;19.42;43.28;97724.41;10324367;28;20122;-53
2022/12/27 11:54:09;;;;;;;29.23;22.55;;;;;;;19.38;38.22;97737.72;10323727;28;20097;-62
2022/12/27 11:59:50;;;;;;;7.10;4.72;;;;;;;18.86;32.72;97727.06;10332232;28;20502;-60
2022/12/27 12:05:34;;;;;;;6.90;4.53;;;;;;;18.83;37.78;97726.84;10321359;28;20128;-57
2022/12/27 12:11:00;;;;;;;5.32;3.80;;;;;;;19.10;40.04;97732.28;10335110;28;20050;-64
2022/12/27 12:16:50;;;;;;;7.00;3.92;;;;;;;19.30;40.49;97719.50;10319264;28;20426;-58
2022/12/27 12:22:57;;;;;;;4.90;3.47;;;;;;;19.41;40.97;97709.31;10345943;28;20058;-57
2022/12/27 12:28:54;;;;;;;5.32;3.33;;;;;;;19.49;41.42;97705.91;10320601;28;20058;-53
2022/12/27 12:34:51;;;;;;;6.35;3.70;;;;;;;19.54;42.15;97708.47;10336927;28;20414;-55
2022/12/27 12:40:31;;;;;;;5.75;3.53;;;;;;;19.59;42.89;97710.28;10337259;28;20073;-55
2022/12/27 12:46:13;;;;;;;4.97;3.80;;;;;;;19.63;43.56;97711.28;10350176;28;20100;-55
2022/12/27 12:51:53;;;;;;;5.65;3.92;;;;;;;19.66;43.97;97699.84;10332357;28;20414;-54
2022/12/27 12:57:35;;;;;;;5.75;3.70;;;;;;;19.68;44.27;97703.06;10329814;28;20081;-54
2022/12/27 13:03:22;;;;;;;5.53;3.72;;;;;;;19.70;44.60;97707.06;10337369;28;20058;-54
2022/12/27 13:09:01;;;;;;;4.85;3.60;;;;;;;19.72;45.13;97706.81;10321162;28;20113;-52
2022/12/27 13:14:33;;;;;;;5.97;3.80;;;;;;;19.74;45.36;97708.09;10333432;28;20113;-54
2022/12/27 13:20:12;;;;;;;5.20;3.38;;;;;;;-146.19;100.00;65364.44;10321288;28;20065;-59
2022/12/27 13:25:51;;;;;;;5.57;3.60;;;;;;;19.74;45.36;97708.09;10320842;28;20109;-62
2022/12/27 13:31:35;;;;;;;5.40;3.47;;;;;;;19.83;46.46;97716.28;10335084;28;20525;-61
2022/12/27 13:37:21;;;;;;;5.15;3.17;;;;;;;19.83;46.46;97716.28;10348060;28;20438;-68
2022/12/27 13:43:00;;;;;;;7.93;3.45;;;;;;;19.87;47.23;97728.09;10333280;28;20104;-49
2022/12/27 13:48:50;;;;;;;6.57;3.47;;;;;;;-146.19;100.00;65364.44;10328213;28;20141;-53
2022/12/27 13:54:37;;;;;;;7.45;3.60;;;;;;;-146.19;100.00;65364.44;10334665;28;20046;-66
2022/12/27 14:00:07;;;;;;;6.57;3.50;;;;;;;19.87;47.23;97728.09;10314004;28;20506;-61
2022/12/27 14:05:39;;;;;;;6.82;3.70;;;;;;;-146.19;100.00;65364.44;10327462;28;20050;-64
2022/12/27 14:10:59;;;;;;;7.60;3.60;;;;;;;19.87;47.23;97728.09;10332002;28;20531;-66
2022/12/27 14:16:44;;;;;;;7.30;3.35;;;;;;;19.87;47.23;97728.09;10332077;28;20058;-54
2022/12/27 14:22:13;;;;;;;10.27;3.97;;;;;;;19.87;47.23;97728.09;10318055;28;20054;-54
2022/12/27 14:28:10;;;;;;;11.35;4.40;;;;;;;-146.19;100.00;65364.44;10328017;28;20498;-56
2022/12/27 14:33:57;;;;;;;8.10;3.83;;;;;;;19.99;48.92;97715.94;10322797;28;20149;-53
2022/12/27 14:39:38;;;;;;;9.27;3.70;;;;;;;19.98;49.12;97730.59;10323823;28;20062;-62
2022/12/27 14:45:19;;;;;;;7.97;3.97;;;;;;;19.99;49.07;97732.97;10342967;28;20058;-61
2022/12/27 14:50:53;;;;;;;8.57;3.50;;;;;;;19.99;49.14;97741.09;10325084;28;20058;-59
2022/12/27 14:56:18;;;;;;;7.53;3.70;;;;;;;20.00;49.18;97752.72;10345620;28;20047;-58
2022/12/27 15:02:07;;;;;;;6.90;3.33;;;;;;;19.99;49.28;97757.31;10340800;28;20054;-58
2022/12/27 15:07:43;;;;;;;7.55;3.38;;;;;;;19.98;49.50;97754.94;10331834;28;20418;-62
2022/12/27 15:13:12;;;;;;;5.93;3.05;;;;;;;20.00;49.64;97768.94;10321021;28;20118;-54
2022/12/27 15:18:59;;;;;;;5.45;3.03;;;;;;;19.99;49.32;97761.94;10317011;28;20065;-54
2022/12/27 15:24:56;;;;;;;6.70;3.00;;;;;;;19.97;49.26;97759.50;10316874;28;20073;-55
2022/12/27 15:30:47;;;;;;;6.13;3.15;;;;;;;19.97;49.14;97764.94;10331740;28;20062;-54
2022/12/27 15:36:13;;;;;;;5.10;2.85;;;;;;;19.97;49.19;97766.84;10323091;28;20053;-55
2022/12/27 15:41:56;;;;;;;6.57;2.92;;;;;;;19.95;49.28;97761.72;10330706;28;20058;-53
2022/12/27 15:47:28;;;;;;;6.18;2.75;;;;;;;19.94;49.33;97749.31;10324660;28;20427;-54
2022/12/27 15:52:52;;;;;;;14.35;2.97;;;;;;;19.94;49.34;97752.03;10331102;28;20061;-53
2022/12/27 15:58:19;;;;;;;6.07;2.80;;;;;;;19.94;49.29;97754.72;10318784;28;20109;-53
2022/12/27 16:03:39;;;;;;;5.18;3.00;;;;;;;19.94;49.25;97770.97;10329011;28;20046;-55
2022/12/27 16:09:34;;;;;;;6.05;3.00;;;;;;;19.92;49.21;97767.75;10312053;28;20528;-54
2022/12/27 16:15:32;;;;;;;4.93;2.65;;;;;;;19.92;49.35;97778.56;10338735;28;20069;-54
2022/12/27 16:20:56;;;;;;;15.13;7.13;;;;;;;19.92;49.60;97775.88;10331194;28;20074;-55
2022/12/27 16:26:30;;;;;;;13.45;6.78;;;;;;;19.91;49.73;97761.53;10337778;28;20061;-54
2022/12/27 16:31:50;;;;;;;15.77;7.50;;;;;;;19.91;50.26;97758.81;10337124;28;20054;-55
2022/12/27 16:37:30;;;;;;;17.17;7.68;;;;;;;19.91;50.11;97761.53;10324977;28;20055;-55
2022/12/27 16:42:52;;;;;;;12.70;6.80;;;;;;;19.91;50.38;97766.16;10322249;28;20054;-54
2022/12/27 16:48:54;;;;;;;13.57;7.28;;;;;;;19.88;50.83;97772.97;10350051;28;20053;-54
2022/12/27 16:54:24;;;;;;;9.95;6.15;;;;;;;19.86;48.77;97777.09;10347813;28;20043;-57
2022/12/27 16:59:56;;;;;;;10.75;6.00;;;;;;;19.83;49.52;97783.88;10318191;28;20066;-61
2022/12/27 17:05:15;;;;;;;10.10;5.85;;;;;;;19.84;49.88;97798.22;10334295;28;20047;-58
2022/12/27 17:10:41;;;;;;;10.75;5.68;;;;;;;19.84;49.76;97795.50;10348580;28;20084;-54
2022/12/27 17:16:18;;;;;;;8.73;5.15;;;;;;;19.81;49.93;97777.97;10335136;28;20055;-55
2022/12/27 17:21:40;;;;;;;10.43;5.53;;;;;;;19.81;50.03;97777.97;10320203;28;20434;-57
2022/12/27 17:27:21;;;;;;;9.10;5.28;;;;;;;19.79;50.21;97780.19;10319727;28;20140;-57
2022/12/27 17:32:56;;;;;;;9.00;5.22;;;;;;;19.78;50.40;97781.28;10334371;28;20415;-58
2022/12/27 17:38:42;;;;;;;6.90;4.70;;;;;;;19.77;50.37;97782.38;10333466;28;20113;-57
2022/12/27 17:49:49;;;;;;;7.83;4.43;;;;;;;19.75;50.39;97777.28;10329596;28;20058;-55
2022/12/27 18:01:05;;;;;;;8.93;4.47;;;;;;;19.73;50.61;97778.69;10334921;28;20046;-55
2022/12/27 18:06:25;;;;;;;6.75;4.25;;;;;;;19.73;50.59;97774.06;10333435;28;20059;-55
2022/12/27 18:11:44;;;;;;;8.93;3.90;;;;;;;19.72;50.70;97785.22;10332795;28;20050;-56
2022/12/27 18:17:04;;;;;;;9.52;4.40;;;;;;;19.72;50.70;97790.63;10319006;28;20058;-55
2022/12/27 18:22:24;;;;;;;7.28;3.95;;;;;;;19.71;50.30;97778.16;10333034;28;20073;-58
2022/12/27 18:27:44;;;;;;;6.18;3.88;;;;;;;19.70;50.35;97771.94;10304470;28;20061;-55
2022/12/27 18:33:05;;;;;;;7.88;3.92;;;;;;;19.68;50.37;97766.06;10331041;28;20521;-55
2022/12/27 18:38:27;;;;;;;6.00;3.67;;;;;;;19.68;50.65;97762.53;10331882;28;20065;-56
2022/12/27 18:43:49;;;;;;;6.30;3.75;;;;;;;19.68;50.81;97767.94;10329525;28;20072;-53
2022/12/27 18:49:24;;;;;;;6.68;3.90;;;;;;;19.66;50.94;97770.13;10328428;28;20054;-54
2022/12/27 18:54:43;;;;;;;4.88;3.15;;;;;;;19.46;41.04;97777.53;10332042;28;20050;-63
2022/12/27 19:00:17;;;;;;;8.32;2.75;;;;;;;18.83;38.22;97770.03;10325680;28;20080;-50
2022/12/27 19:05:37;;;;;;;7.38;2.97;;;;;;;18.94;41.93;97771.47;10326344;28;20463;-54
2022/12/27 19:10:56;;;;;;;5.32;2.67;;;;;;;19.12;43.05;97775.22;10329982;28;20508;-55
2022/12/27 19:16:25;;;;;;;4.07;2.60;;;;;;;19.21;43.61;97776.13;10329828;28;20058;-54
2022/12/27 19:21:45;;;;;;;3.58;2.65;;;;;;;19.26;43.98;97777.94;10316237;28;20061;-55
2022/12/27 19:27:19;;;;;;;4.43;2.83;;;;;;;19.30;44.06;97768.13;10328568;28;20140;-54
2022/12/27 19:32:39;;;;;;;5.43;3.08;;;;;;;19.32;44.30;97766.72;10316179;28;20069;-54
2022/12/27 19:38:00;;;;;;;4.25;2.80;;;;;;;19.34;44.55;97766.44;10328335;28;20055;-53
2022/12/27 19:43:19;;;;;;;4.70;2.30;;;;;;;19.35;44.90;97770.75;10328440;28;20050;-54
2022/12/27 19:48:39;;;;;;;4.70;2.58;;;;;;;19.37;45.02;97768.53;10337761;28;20502;-53
2022/12/27 19:53:59;;;;;;;2.88;2.42;;;;;;;19.41;45.10;97766.06;10348904;28;20521;-55
2022/12/27 19:59:21;;;;;;;3.88;2.63;;;;;;;19.42;45.37;97762.22;10338789;28;20085;-54
2022/12/27 20:04:41;;;;;;;3.53;2.25;;;;;;;19.43;45.43;97763.84;10337724;28;20141;-54
2022/12/27 20:10:02;;;;;;;3.33;2.15;;;;;;;19.44;45.71;97766.22;10337015;28;20601;-55
2022/12/27 20:15:21;;;;;;;3.10;2.17;;;;;;;19.44;45.84;97755.41;10335797;28;20050;-55
2022/12/27 20:20:41;;;;;;;3.70;2.13;;;;;;;19.45;46.00;97754.34;10336170;28;20054;-55
2022/12/27 20:26:01;;;;;;;4.30;2.53;;;;;;;19.47;46.12;97756.75;10336787;28;20526;-53
2022/12/27 20:31:21;;;;;;;2.28;2.00;;;;;;;19.48;46.16;97761.84;10330113;28;20046;-54
2022/12/27 20:36:40;;;;;;;2.38;1.98;;;;;;;19.50;46.41;97758.81;10336799;28;20054;-54
2022/12/27 20:42:01;;;;;;;2.97;2.28;;;;;;;19.51;46.59;97752.34;10335311;28;20058;-53
2022/12/27 20:47:20;;;;;;;3.20;2.45;;;;;;;19.52;46.76;97749.34;10336759;28;20410;-54
2022/12/27 20:52:39;;;;;;;4.65;2.35;;;;;;;19.55;46.92;97758.75;10335062;28;20406;-55
2022/12/27 20:58:00;;;;;;;2.33;1.92;;;;;;;19.55;46.80;97747.94;10324563;28;20062;-54
2022/12/27 21:03:19;;;;;;;2.72;2.05;;;;;;;19.56;47.10;97744.94;10336710;28;20077;-54
2022/12/27 21:08:39;;;;;;;3.20;2.20;;;;;;;19.59;47.20;97750.84;10325798;28;20082;-55
2022/12/27 21:14:00;;;;;;;3.88;2.10;;;;;;;19.59;47.25;97753.53;10341983;28;20457;-55
2022/12/27 21:19:19;;;;;;;2.58;1.95;;;;;;;19.60;47.39;97745.13;10330154;28;20058;-54
2022/12/27 21:24:39;;;;;;;2.35;2.00;;;;;;;19.63;47.47;97735.63;10334907;28;20495;-53
2022/12/27 21:29:58;;;;;;;2.83;2.00;;;;;;;19.64;47.42;97723.69;10335043;28;20055;-54
2022/12/27 21:35:18;;;;;;;2.80;1.90;;;;;;;19.65;47.68;97722.59;10334559;28;20058;-54
2022/12/27 21:40:37;;;;;;;2.20;2.00;;;;;;;19.65;47.62;97714.50;10348202;28;20414;-54
2022/12/27 21:45:58;;;;;;;2.60;1.92;;;;;;;19.65;47.71;97714.50;10335085;28;20128;-53
2022/12/27 21:51:18;;;;;;;2.67;2.28;;;;;;;19.65;47.82;97709.88;10319641;28;20069;-54
2022/12/27 21:56:39;;;;;;;2.72;2.03;;;;;;;19.66;47.68;97711.50;10332090;28;20102;-52
2022/12/27 22:02:01;;;;;;;2.10;1.90;;;;;;;19.65;47.81;97709.09;10333601;28;20093;-53
2022/12/27 22:07:21;;;;;;;3.15;2.10;;;;;;;19.66;47.84;97703.38;10333985;28;20054;-54
2022/12/27 22:12:40;;;;;;;2.30;1.77;;;;;;;19.65;48.00;97704.47;10333245;28;20557;-54
2022/12/27 22:18:00;;;;;;;2.30;1.85;;;;;;;19.66;48.14;97702.56;10333284;28;20054;-54
2022/12/27 22:23:19;;;;;;;2.70;1.80;;;;;;;19.65;47.98;97699.06;10333428;28;20105;-54
2022/12/27 22:28:39;;;;;;;2.20;1.70;;;;;;;19.65;48.06;97698.28;10346573;28;20046;-54
2022/12/27 22:33:58;;;;;;;2.97;1.88;;;;;;;19.65;48.13;97690.94;10332527;28;20108;-54
2022/12/27 22:39:18;;;;;;;2.35;1.85;;;;;;;19.65;48.16;97687.47;10328766;28;20047;-55
2022/12/27 22:44:37;;;;;;;2.05;1.67;;;;;;;19.64;48.28;97683.13;10323621;28;20498;-54
2022/12/27 22:49:56;;;;;;;2.35;1.75;;;;;;;19.63;48.08;97684.25;10331958;28;20054;-53
2022/12/27 22:55:15;;;;;;;2.05;1.83;;;;;;;19.61;48.13;97681.84;10332638;28;20058;-53
2022/12/27 23:00:35;;;;;;;2.22;1.52;;;;;;;19.61;47.89;97681.06;10326654;28;20062;-54
2022/12/27 23:05:59;;;;;;;2.15;1.75;;;;;;;19.61;48.12;97678.34;10332407;28;20051;-53
2022/12/27 23:11:20;;;;;;;2.40;1.92;;;;;;;19.60;48.01;97684.84;10331772;28;20093;-54
2022/12/27 23:16:42;;;;;;;2.75;1.55;;;;;;;19.59;48.00;97683.25;10332353;28;20387;-54
2022/12/27 23:22:02;;;;;;;2.65;1.80;;;;;;;19.58;48.13;97685.16;10350611;28;20061;-54
2022/12/27 23:27:21;;;;;;;1.85;1.52;;;;;;;19.58;48.04;97678.94;10340312;28;20085;-53
2022/12/27 23:32:40;;;;;;;1.90;1.60;;;;;;;19.55;48.14;97678.44;10352908;28;20415;-54
2022/12/27 23:38:03;;;;;;;2.03;1.60;;;;;;;19.55;48.00;97670.34;10352860;28;20047;-54
2022/12/27 23:43:23;;;;;;;1.80;1.60;;;;;;;19.54;48.03;97666.06;10338862;28;20569;-54
2022/12/27 23:48:43;;;;;;;1.73;1.50;;;;;;;19.53;48.01;97660.94;10338795;28;20510;-52
2022/12/27 23:54:02;;;;;;;1.52;1.42;;;;;;;19.52;48.08;97651.22;10338949;28;20062;-53
2022/12/27 23:59:23;;;;;;;1.67;1.50;;;;;;;19.52;48.07;97648.53;10332690;28;20066;-53
